createdAt,value
2022-09-29T00:00:55.133Z,5.05
2022-09-29T00:03:24.228Z,4.85
2022-09-29T00:05:53.878Z,4.85
2022-09-29T00:08:24.897Z,4.90
2022-09-29T00:10:52.929Z,4.93
2022-09-29T00:13:21.302Z,4.68
2022-09-29T00:15:57.362Z,4.30
2022-09-29T00:18:25.467Z,4.55
2022-09-29T00:21:03.620Z,4.80
2022-09-29T00:23:33.835Z,4.20
2022-09-29T00:26:03.588Z,4.25
2022-09-29T00:28:31.942Z,3.90
2022-09-29T00:31:02.732Z,4.20
2022-09-29T00:33:31.857Z,4.22
2022-09-29T00:36:01.930Z,3.28
2022-09-29T00:38:30.448Z,3.47
2022-09-29T00:41:02.757Z,4.22
2022-09-29T00:43:53.183Z,3.65
2022-09-29T00:46:28.751Z,3.83
2022-09-29T00:48:59.356Z,3.40
2022-09-29T00:51:28.803Z,3.80
2022-09-29T00:53:58.044Z,3.50
2022-09-29T00:56:28.845Z,3.38
2022-09-29T00:59:02.406Z,3.25
2022-09-29T01:01:32.814Z,3.60
2022-09-29T01:04:05.980Z,3.63
2022-09-29T01:06:40.609Z,3.55
2022-09-29T01:09:12.698Z,3.15
2022-09-29T01:11:42.728Z,3.38
2022-09-29T01:14:12.783Z,3.20
2022-09-29T01:16:42.181Z,3.40
2022-09-29T01:19:15.002Z,3.15
2022-09-29T01:21:57.657Z,3.00
2022-09-29T01:24:48.009Z,2.88
2022-09-29T01:27:40.553Z,3.00
2022-09-29T01:30:21.461Z,3.47
2022-09-29T01:33:31.950Z,2.60
2022-09-29T01:36:06.372Z,3.40
2022-09-29T01:39:00.192Z,2.42
2022-09-29T01:41:36.823Z,2.83
2022-09-29T01:44:12.460Z,2.60
2022-09-29T01:46:45.323Z,2.55
2022-09-29T01:49:16.180Z,2.70
2022-09-29T01:51:52.141Z,3.30
2022-09-29T01:54:27.556Z,2.67
2022-09-29T01:57:02.989Z,2.70
2022-09-29T01:59:43.100Z,2.92
2022-09-29T02:02:15.517Z,3.10
2022-09-29T02:04:50.738Z,2.63
2022-09-29T02:07:23.385Z,2.58
2022-09-29T02:09:59.238Z,2.47
2022-09-29T02:12:30.194Z,2.78
2022-09-29T02:14:59.715Z,2.88
2022-09-29T02:17:32.725Z,2.45
2022-09-29T02:20:02.902Z,2.40
2022-09-29T02:22:31.203Z,2.40
2022-09-29T02:25:00.382Z,2.50
2022-09-29T02:27:29.777Z,2.38
2022-09-29T02:29:59.302Z,2.40
2022-09-29T02:32:27.800Z,2.40
2022-09-29T02:34:56.963Z,2.50
2022-09-29T02:37:45.012Z,2.42
2022-09-29T02:40:39.748Z,2.40
2022-09-29T02:43:18.982Z,2.55
2022-09-29T02:45:57.715Z,2.28
2022-09-29T02:48:47.317Z,2.63
2022-09-29T02:54:08.638Z,2.42
2022-09-29T02:56:44.744Z,2.30
2022-09-29T02:59:16.593Z,2.60
2022-09-29T03:01:52.851Z,2.40
2022-09-29T03:04:22.505Z,2.03
2022-09-29T03:06:50.690Z,2.72
2022-09-29T03:09:22.588Z,2.53
2022-09-29T03:11:50.584Z,2.35
2022-09-29T03:14:18.677Z,2.60
2022-09-29T03:16:49.230Z,2.25
2022-09-29T03:19:17.854Z,2.80
2022-09-29T03:21:45.772Z,2.50
2022-09-29T03:24:13.816Z,1.92
2022-09-29T03:26:43.127Z,2.15
2022-09-29T03:29:11.273Z,2.10
2022-09-29T03:31:41.232Z,2.10
2022-09-29T03:34:09.332Z,2.00
2022-09-29T03:36:37.226Z,2.85
2022-09-29T03:39:05.270Z,1.75
2022-09-29T03:41:33.214Z,2.30
2022-09-29T03:44:02.861Z,2.08
2022-09-29T03:46:30.800Z,2.30
2022-09-29T03:48:58.786Z,2.05
2022-09-29T03:51:26.729Z,2.10
2022-09-29T03:53:55.463Z,2.05
2022-09-29T03:56:23.777Z,1.90
2022-09-29T03:58:52.125Z,2.10
2022-09-29T04:01:22.095Z,2.15
2022-09-29T04:03:50.290Z,2.13
2022-09-29T04:06:18.622Z,2.28
2022-09-29T04:08:46.610Z,2.30
2022-09-29T04:11:14.502Z,2.00
2022-09-29T04:13:42.671Z,2.10
2022-09-29T04:16:10.654Z,2.08
2022-09-29T04:18:40.155Z,1.80
2022-09-29T04:21:09.471Z,1.60
2022-09-29T04:23:38.547Z,1.85
2022-09-29T04:26:06.977Z,1.70
2022-09-29T04:28:37.604Z,1.90
2022-09-29T04:31:06.624Z,2.00
2022-09-29T04:33:34.605Z,2.00
2022-09-29T04:36:04.414Z,1.90
2022-09-29T04:38:32.574Z,2.15
2022-09-29T04:41:05.404Z,1.70
2022-09-29T04:43:33.416Z,1.88
2022-09-29T04:46:07.370Z,1.65
2022-09-29T04:48:37.887Z,1.63
2022-09-29T04:51:10.363Z,2.03
2022-09-29T04:56:07.620Z,1.70
2022-09-29T04:58:35.774Z,1.70
2022-09-29T05:01:12.904Z,1.75
2022-09-29T05:03:41.018Z,1.60
2022-09-29T05:06:11.325Z,2.10
2022-09-29T05:08:39.334Z,1.95
2022-09-29T05:11:08.303Z,2.00
2022-09-29T05:13:36.905Z,1.80
2022-09-29T05:16:06.209Z,1.85
2022-09-29T05:18:34.733Z,2.03
2022-09-29T05:21:26.423Z,1.70
2022-09-29T05:23:56.049Z,1.77
2022-09-29T05:26:24.002Z,1.70
2022-09-29T05:28:51.890Z,1.70
2022-09-29T05:31:20.243Z,1.85
2022-09-29T05:33:48.434Z,1.80
2022-09-29T05:36:16.845Z,1.70
2022-09-29T05:38:44.777Z,1.85
2022-09-29T05:41:16.289Z,1.95
2022-09-29T05:43:44.261Z,1.73
2022-09-29T05:46:12.341Z,1.80
2022-09-29T05:48:40.401Z,1.70
2022-09-29T05:51:10.529Z,1.70
2022-09-29T05:53:38.998Z,1.77
2022-09-29T05:56:08.066Z,1.88
2022-09-29T05:58:38.017Z,1.80
2022-09-29T06:01:10.391Z,1.85
2022-09-29T06:03:38.687Z,1.85
2022-09-29T06:06:10.291Z,1.80
2022-09-29T06:08:40.664Z,1.67
2022-09-29T06:11:10.932Z,1.98
2022-09-29T06:13:41.250Z,2.10
2022-09-29T06:16:09.341Z,1.95
2022-09-29T06:18:37.804Z,1.70
2022-09-29T06:21:07.733Z,2.90
2022-09-29T06:23:36.254Z,2.67
2022-09-29T06:26:10.441Z,2.28
2022-09-29T06:28:38.455Z,2.25
2022-09-29T06:31:11.721Z,2.20
2022-09-29T06:33:40.117Z,2.25
2022-09-29T06:36:34.098Z,2.10
2022-09-29T06:39:02.431Z,2.47
2022-09-29T06:41:30.345Z,2.25
2022-09-29T06:43:58.887Z,2.08
2022-09-29T06:46:28.325Z,2.40
2022-09-29T06:48:57.255Z,2.47
2022-09-29T06:51:37.727Z,2.38
2022-09-29T06:54:12.053Z,2.42
2022-09-29T06:56:41.086Z,2.92
2022-09-29T06:59:09.304Z,2.45
2022-09-29T07:01:38.741Z,2.10
2022-09-29T07:04:06.789Z,2.40
2022-09-29T07:06:35.608Z,2.30
2022-09-29T07:09:03.884Z,2.20
2022-09-29T07:11:31.861Z,2.17
2022-09-29T07:13:59.816Z,2.20
2022-09-29T07:16:27.949Z,2.33
2022-09-29T07:18:57.239Z,2.42
2022-09-29T07:21:25.255Z,2.47
2022-09-29T07:23:53.133Z,2.40
2022-09-29T07:26:22.071Z,2.40
2022-09-29T07:28:50.261Z,2.60
2022-09-29T07:31:20.294Z,2.30
2022-09-29T07:33:50.050Z,2.42
2022-09-29T07:36:21.087Z,2.30
2022-09-29T07:38:50.122Z,2.33
2022-09-29T07:41:19.554Z,2.70
2022-09-29T07:43:47.956Z,2.47
2022-09-29T07:46:16.068Z,2.33
2022-09-29T07:48:44.692Z,2.60
2022-09-29T07:51:15.103Z,2.55
2022-09-29T07:53:44.892Z,2.50
2022-09-29T07:56:15.506Z,2.60
2022-09-29T07:58:43.485Z,2.38
2022-09-29T08:01:12.816Z,2.80
2022-09-29T08:03:42.206Z,2.55
2022-09-29T08:06:10.955Z,2.55
2022-09-29T08:08:53.610Z,3.08
2022-09-29T08:11:31.510Z,2.40
2022-09-29T08:14:00.618Z,2.70
2022-09-29T08:16:28.726Z,2.85
2022-09-29T08:18:56.815Z,3.90
2022-09-29T08:21:24.779Z,3.58
2022-09-29T08:23:52.786Z,3.67
2022-09-29T08:26:34.594Z,3.80
2022-09-29T08:29:09.252Z,3.88
2022-09-29T08:31:38.953Z,3.60
2022-09-29T08:34:08.108Z,2.70
2022-09-29T08:36:36.836Z,3.63
2022-09-29T08:39:05.146Z,4.35
2022-09-29T08:41:45.633Z,3.90
2022-09-29T08:44:35.220Z,4.18
2022-09-29T08:47:18.143Z,4.00
2022-09-29T08:49:51.044Z,4.28
2022-09-29T08:52:23.882Z,4.25
2022-09-29T08:54:58.362Z,4.20
2022-09-29T08:57:26.808Z,4.15
2022-09-29T08:59:58.912Z,4.30
2022-09-29T09:02:56.710Z,4.13
2022-09-29T09:05:39.623Z,4.32
2022-09-29T09:08:17.037Z,4.50
2022-09-29T09:10:47.577Z,3.80
2022-09-29T09:13:34.512Z,4.20
2022-09-29T09:16:15.773Z,4.07
2022-09-29T09:19:26.143Z,4.43
2022-09-29T09:22:04.654Z,4.20
2022-09-29T09:24:40.238Z,4.15
2022-09-29T09:27:15.321Z,4.35
2022-09-29T09:29:45.404Z,4.28
2022-09-29T09:32:24.047Z,4.72
2022-09-29T09:34:59.595Z,4.57
2022-09-29T09:37:35.529Z,4.55
2022-09-29T09:40:14.908Z,4.20
2022-09-29T09:42:47.947Z,4.50
2022-09-29T09:45:25.014Z,4.60
2022-09-29T09:48:00.903Z,3.60
2022-09-29T09:50:31.443Z,4.03
2022-09-29T09:53:05.024Z,3.72
2022-09-29T09:55:36.878Z,4.07
2022-09-29T09:58:25.294Z,3.97
2022-09-29T10:00:56.528Z,3.95
2022-09-29T10:03:26.140Z,4.07
2022-09-29T10:05:54.225Z,4.03
2022-09-29T10:08:26.897Z,3.65
2022-09-29T10:10:59.001Z,4.00
2022-09-29T10:13:29.516Z,3.47
2022-09-29T10:16:01.817Z,4.10
2022-09-29T10:18:37.796Z,3.60
2022-09-29T10:21:06.032Z,3.75
2022-09-29T10:23:35.703Z,3.67
2022-09-29T10:26:13.150Z,3.90
2022-09-29T10:28:45.605Z,3.50
2022-09-29T10:31:20.019Z,3.60
2022-09-29T10:33:52.478Z,3.60
2022-09-29T10:36:21.894Z,3.30
2022-09-29T10:38:54.031Z,3.35
2022-09-29T10:41:21.999Z,3.42
2022-09-29T10:43:52.858Z,3.40
2022-09-29T10:46:39.813Z,3.43
2022-09-29T10:49:16.188Z,3.60
2022-09-29T10:51:54.329Z,3.30
2022-09-29T10:54:26.885Z,3.65
2022-09-29T10:56:56.393Z,3.30
2022-09-29T10:59:25.378Z,3.33
2022-09-29T11:01:56.902Z,3.20
2022-09-29T11:04:29.665Z,3.47
2022-09-29T11:07:06.493Z,3.20
2022-09-29T11:09:40.737Z,3.28
2022-09-29T11:12:27.170Z,3.40
2022-09-29T11:14:55.137Z,3.40
2022-09-29T11:17:25.546Z,3.28
2022-09-29T11:19:58.247Z,3.30
2022-09-29T11:23:07.699Z,3.08
2022-09-29T11:25:57.450Z,3.10
2022-09-29T11:28:49.900Z,2.88
2022-09-29T11:31:33.894Z,3.00
2022-09-29T11:34:21.568Z,3.10
2022-09-29T11:39:45.894Z,3.20
2022-09-29T11:42:42.035Z,3.28
2022-09-29T11:48:30.651Z,2.60
2022-09-29T11:51:07.096Z,3.13
2022-09-29T11:53:53.277Z,2.70
2022-09-29T11:56:32.199Z,2.70
2022-09-29T11:59:27.740Z,2.95
2022-09-29T12:02:20.490Z,2.50
2022-09-29T12:04:57.718Z,3.10
2022-09-29T12:07:37.944Z,2.85
2022-09-29T12:10:26.334Z,2.80
2022-09-29T12:13:04.533Z,2.85
2022-09-29T12:15:42.637Z,2.97
2022-09-29T12:18:20.982Z,2.72
2022-09-29T12:20:53.921Z,2.97
2022-09-29T12:23:25.385Z,2.97
2022-09-29T12:26:00.245Z,2.80
2022-09-29T12:28:33.551Z,2.72
2022-09-29T12:31:06.050Z,2.65
2022-09-29T12:33:40.887Z,2.47
2022-09-29T12:36:38.329Z,2.88
2022-09-29T12:39:18.712Z,2.40
2022-09-29T12:41:54.295Z,2.42
2022-09-29T12:44:29.552Z,2.78
2022-09-29T12:47:04.242Z,2.33
2022-09-29T12:49:48.315Z,2.60
2022-09-29T12:52:21.757Z,2.33
2022-09-29T12:54:55.367Z,2.42
2022-09-29T12:57:29.010Z,2.30
2022-09-29T13:00:03.231Z,2.13
2022-09-29T13:02:50.426Z,2.40
2022-09-29T13:05:30.301Z,2.33
2022-09-29T13:08:19.444Z,2.25
2022-09-29T13:11:04.653Z,2.03
2022-09-29T13:14:06.856Z,2.33
2022-09-29T13:16:53.054Z,2.42
2022-09-29T13:19:56.921Z,2.38
2022-09-29T13:22:47.963Z,2.22
2022-09-29T13:25:24.333Z,2.80
2022-09-29T13:27:55.751Z,2.63
2022-09-29T13:30:28.977Z,2.63
2022-09-29T13:33:09.755Z,2.97
2022-09-29T13:35:42.581Z,2.47
2022-09-29T13:38:17.774Z,2.38
2022-09-29T13:41:12.317Z,2.15
2022-09-29T13:44:01.887Z,1.90
2022-09-29T13:46:39.011Z,1.90
2022-09-29T13:49:16.308Z,1.80
2022-09-29T13:51:47.928Z,1.88
2022-09-29T13:54:29.722Z,1.98
2022-09-29T13:57:28.955Z,1.77
2022-09-29T14:00:25.742Z,1.60
2022-09-29T14:03:23.271Z,1.92
2022-09-29T14:05:57.373Z,1.70
2022-09-29T14:08:40.274Z,1.60
2022-09-29T14:11:24.270Z,1.65
2022-09-29T14:13:59.527Z,1.88
2022-09-29T14:16:53.742Z,1.70
2022-09-29T14:19:37.000Z,1.90
2022-09-29T14:22:07.100Z,1.80
2022-09-29T14:24:47.258Z,1.50
2022-09-29T14:27:21.725Z,1.50
2022-09-29T14:29:53.119Z,1.55
2022-09-29T14:32:23.403Z,1.40
2022-09-29T14:34:54.390Z,1.70
2022-09-29T14:37:25.885Z,1.50
2022-09-29T14:40:14.278Z,1.63
2022-09-29T14:42:42.251Z,1.50
2022-09-29T14:45:31.717Z,1.60
2022-09-29T14:48:24.165Z,1.58
2022-09-29T14:51:29.116Z,1.50
2022-09-29T14:54:08.442Z,1.30
2022-09-29T14:56:53.196Z,1.38
2022-09-29T14:59:37.080Z,1.30
2022-09-29T15:02:26.876Z,1.70
2022-09-29T15:04:54.924Z,1.40
2022-09-29T15:07:26.470Z,1.30
2022-09-29T15:09:57.022Z,1.27
2022-09-29T15:12:27.449Z,1.60
2022-09-29T15:15:01.511Z,1.70
2022-09-29T15:17:44.538Z,1.33
2022-09-29T15:20:23.211Z,1.38
2022-09-29T15:23:07.661Z,1.48
2022-09-29T15:25:37.472Z,1.30
2022-09-29T15:28:10.900Z,1.45
2022-09-29T15:30:39.738Z,1.50
2022-09-29T15:33:21.517Z,1.20
2022-09-29T15:35:52.755Z,1.30
2022-09-29T15:38:36.421Z,1.48
2022-09-29T15:41:06.741Z,1.30
2022-09-29T15:43:42.222Z,2.00
2022-09-29T15:46:35.926Z,1.27
2022-09-29T15:49:11.934Z,1.63
2022-09-29T15:51:41.487Z,1.60
2022-09-29T15:54:13.686Z,1.63
2022-09-29T15:59:42.631Z,1.40
2022-09-29T16:02:21.165Z,1.48
2022-09-29T16:04:53.605Z,1.42
2022-09-29T16:07:28.102Z,1.23
2022-09-29T16:10:04.436Z,1.58
2022-09-29T16:12:37.758Z,1.92
2022-09-29T16:15:07.087Z,1.45
2022-09-29T16:17:35.188Z,1.48
2022-09-29T16:20:04.418Z,1.92
2022-09-29T16:22:34.727Z,1.30
2022-09-29T16:25:27.813Z,1.88
2022-09-29T16:27:57.768Z,1.65
2022-09-29T16:30:33.133Z,1.40
2022-09-29T16:33:13.256Z,1.40
2022-09-29T16:35:50.765Z,1.20
2022-09-29T16:38:35.660Z,1.80
2022-09-29T16:41:20.503Z,1.65
2022-09-29T16:43:48.994Z,1.30
2022-09-29T16:46:20.980Z,1.70
2022-09-29T16:48:50.638Z,1.20
2022-09-29T16:51:38.079Z,1.70
2022-09-29T16:54:16.635Z,1.60
2022-09-29T16:56:48.914Z,1.80
2022-09-29T16:59:21.274Z,1.65
2022-09-29T17:04:17.459Z,2.33
2022-09-29T17:06:48.355Z,1.80
2022-09-29T17:09:21.303Z,2.20
2022-09-29T17:11:50.978Z,2.03
2022-09-29T17:14:21.629Z,2.00
2022-09-29T17:16:51.695Z,2.60
2022-09-29T17:19:22.347Z,2.13
2022-09-29T17:21:50.893Z,2.03
2022-09-29T17:24:18.856Z,2.38
2022-09-29T17:27:05.040Z,1.92
2022-09-29T17:29:36.065Z,2.10
2022-09-29T17:32:13.038Z,1.98
2022-09-29T17:34:40.989Z,1.95
2022-09-29T17:37:11.465Z,2.03
2022-09-29T17:39:39.413Z,2.10
2022-09-29T17:42:08.540Z,2.17
2022-09-29T17:44:39.286Z,2.17
2022-09-29T17:47:26.734Z,2.28
2022-09-29T17:49:55.217Z,2.00
2022-09-29T17:52:23.211Z,1.90
2022-09-29T17:54:51.214Z,2.03
2022-09-29T17:57:24.913Z,2.42
2022-09-29T17:59:55.033Z,2.42
2022-09-29T18:02:24.194Z,2.20
2022-09-29T18:04:54.337Z,2.13
2022-09-29T18:07:22.308Z,2.03
2022-09-29T18:09:52.720Z,1.98
2022-09-29T18:12:20.613Z,2.20
2022-09-29T18:14:48.541Z,2.55
2022-09-29T18:17:18.020Z,1.98
2022-09-29T18:19:48.942Z,1.80
2022-09-29T18:22:17.509Z,2.03
2022-09-29T18:24:45.423Z,2.05
2022-09-29T18:27:14.877Z,2.20
2022-09-29T18:29:42.940Z,1.90
2022-09-29T18:32:16.794Z,2.03
2022-09-29T18:34:46.092Z,1.90
2022-09-29T18:37:14.107Z,2.42
2022-09-29T18:39:42.035Z,2.10
2022-09-29T18:42:11.168Z,1.92
2022-09-29T18:44:39.150Z,2.30
2022-09-29T18:47:07.071Z,2.45
2022-09-29T18:49:35.000Z,2.40
2022-09-29T18:52:04.440Z,2.35
2022-09-29T18:54:33.443Z,2.50
2022-09-29T18:57:01.575Z,2.20
2022-09-29T18:59:29.752Z,2.60
2022-09-29T19:01:57.819Z,2.38
2022-09-29T19:04:25.851Z,2.53
2022-09-29T19:06:53.717Z,2.35
2022-09-29T19:09:23.285Z,2.28
2022-09-29T19:11:51.313Z,2.67
2022-09-29T19:14:19.240Z,2.90
2022-09-29T19:16:48.459Z,2.58
2022-09-29T19:19:16.481Z,2.42
2022-09-29T19:21:44.600Z,2.83
2022-09-29T19:24:12.443Z,2.47
2022-09-29T19:26:41.794Z,2.90
2022-09-29T19:29:09.957Z,2.83
2022-09-29T19:31:38.024Z,2.83
2022-09-29T19:34:06.053Z,2.85
2022-09-29T19:36:34.805Z,2.80
2022-09-29T19:39:04.348Z,2.80
2022-09-29T19:41:32.335Z,2.90
2022-09-29T19:44:01.939Z,3.15
2022-09-29T19:46:29.887Z,2.85
2022-09-29T19:48:57.927Z,3.10
2022-09-29T19:51:47.257Z,2.85
2022-09-29T19:54:17.167Z,2.85
2022-09-29T19:56:48.413Z,3.03
2022-09-29T19:59:19.726Z,2.95
2022-09-29T20:01:50.240Z,3.00
2022-09-29T20:04:19.859Z,2.90
2022-09-29T20:06:48.308Z,3.28
2022-09-29T20:09:17.285Z,3.05
2022-09-29T20:11:47.097Z,3.25
2022-09-29T20:14:18.684Z,3.22
2022-09-29T20:16:47.594Z,2.97
2022-09-29T20:19:18.777Z,3.08
2022-09-29T20:21:49.085Z,3.47
2022-09-29T20:24:18.546Z,3.17
2022-09-29T20:26:48.610Z,3.10
2022-09-29T20:29:21.052Z,3.03
2022-09-29T20:31:49.094Z,3.35
2022-09-29T20:34:20.931Z,3.80
2022-09-29T20:36:54.207Z,3.15
2022-09-29T20:39:24.613Z,3.42
2022-09-29T20:41:54.013Z,3.42
2022-09-29T20:44:25.713Z,3.67
2022-09-29T20:46:54.737Z,8.70
2022-09-29T20:49:22.717Z,8.98
2022-09-29T20:51:51.668Z,9.77
2022-09-29T20:54:20.806Z,9.98
2022-09-29T20:56:50.940Z,10.85
2022-09-29T20:59:21.209Z,9.45
2022-09-29T21:01:52.309Z,9.48
2022-09-29T21:04:21.841Z,9.80
2022-09-29T21:06:51.977Z,9.23
2022-09-29T21:09:22.351Z,9.30
2022-09-29T21:11:51.323Z,9.13
2022-09-29T21:14:21.279Z,9.77
2022-09-29T21:16:53.017Z,9.90
2022-09-29T21:19:26.167Z,8.80
2022-09-29T21:21:54.475Z,8.82
2022-09-29T21:24:22.536Z,9.30
2022-09-29T21:26:52.859Z,9.18
2022-09-29T21:29:21.509Z,8.07
2022-09-29T21:31:51.466Z,9.00
2022-09-29T21:34:19.999Z,9.07
2022-09-29T21:36:47.941Z,8.27
2022-09-29T21:39:17.097Z,8.38
2022-09-29T21:41:46.157Z,7.82
2022-09-29T21:44:16.716Z,7.90
2022-09-29T21:46:45.429Z,8.65
2022-09-29T21:49:16.717Z,7.80
2022-09-29T21:51:47.384Z,8.47
2022-09-29T21:54:17.063Z,8.05
2022-09-29T21:56:46.808Z,7.53
2022-09-29T21:59:17.327Z,7.60
2022-09-29T22:01:46.561Z,7.95
2022-09-29T22:04:16.223Z,7.88
2022-09-29T22:06:44.986Z,7.22
2022-09-29T22:09:16.104Z,7.03
2022-09-29T22:11:44.208Z,7.18
2022-09-29T22:14:14.298Z,7.60
2022-09-29T22:16:42.642Z,6.93
2022-09-29T22:19:22.910Z,7.15
2022-09-29T22:22:01.611Z,6.97
2022-09-29T22:24:29.497Z,6.80
2022-09-29T22:26:57.716Z,6.35
2022-09-29T22:29:27.180Z,6.93
2022-09-29T22:31:55.351Z,7.20
2022-09-29T22:34:23.347Z,6.93
2022-09-29T22:36:51.308Z,6.22
2022-09-29T22:39:20.840Z,6.45
2022-09-29T22:41:48.784Z,7.30
2022-09-29T22:44:17.725Z,6.47
2022-09-29T22:46:45.650Z,6.55
2022-09-29T22:49:13.822Z,6.68
2022-09-29T22:51:44.073Z,6.13
2022-09-29T22:54:13.117Z,5.93
2022-09-29T22:56:44.462Z,6.88
2022-09-29T22:59:13.234Z,6.72
2022-09-29T23:01:41.362Z,6.28
2022-09-29T23:04:09.826Z,5.50
2022-09-29T23:06:37.869Z,6.32
2022-09-29T23:09:06.591Z,6.30
2022-09-29T23:11:34.650Z,6.35
2022-09-29T23:14:04.595Z,6.10
2022-09-29T23:16:34.912Z,5.25
2022-09-29T23:19:02.983Z,6.25
2022-09-29T23:21:31.217Z,5.70
2022-09-29T23:24:02.736Z,6.57
2022-09-29T23:26:31.770Z,5.40
2022-09-29T23:29:00.942Z,5.40
2022-09-29T23:31:33.420Z,5.88
2022-09-29T23:34:01.796Z,5.40
2022-09-29T23:36:31.620Z,5.78
2022-09-29T23:39:11.155Z,5.80
2022-09-29T23:41:44.046Z,5.65
2022-09-29T23:44:13.333Z,5.75
2022-09-29T23:46:43.469Z,5.25
2022-09-29T23:49:13.215Z,5.20
2022-09-29T23:51:43.352Z,5.40
2022-09-29T23:54:13.431Z,4.97
2022-09-29T23:56:41.550Z,6.03
2022-09-29T23:59:09.821Z,5.13
